Manchester, Georgia
Current Conditions -  °F | °C
As of 8:15 PM on Sunday 21 Dec 2014 (Local Time) from KOPN Reporting Station
Overcast Overcast  
Wind Chill: 52°   Ceiling: 1000
Heat Index: 52°   Visibility: 10mi
Dew Point: 48°   Wind: 8mph
Humidity: 88%   Direction: 100°E
Pressure: 30.11"   Gusts: NA
Location:  32.86°N, 84.62°W
Report Text: KOPN 220115Z AUTO 10007KT 070V130 10SM OVC010 11/09 A3011 RMK AO2
Loading
Personal Weather Stations






























Interactive Weather Map New forecast layout! Learn more

10-Day Weather Forecast

Advertisements
Track Severe Weather on mobile